Terminal Aerodrome Forecast
Issued by NWS

Home | Current Version | Previous Version | Text Only | Print | Product List | Glossary On
Versions: 1 2 3 4 5 6 7 8 9 10 11 12 13 14
000
FTUS44 KSJT 270152 AAA
TAFJCT
TAF AMD
KJCT 270152Z 2702/2724 19008KT P6SM SCT050
     FM270500 16011G17KT P6SM OVC025
     FM270800 18009G16KT P6SM BKN015
     FM271000 18004KT P6SM OVC015
     FM271500 19008G15KT P6SM OVC025
     FM271600 22010G18KT P6SM OVC250=

USA.gov is the U.S. government's official web portal to all federal, state and local government web resources and services.